Time;durP1;ratioP1;P1;durP2;ratioP2;P2;SDS_P1;SDS_P2;PMS_P1;PMS_P2;Temp;Humidity;BMP_temperature;BMP_pressure;BME280_temperature;BME280_humidity;BME280_pressure;Samples;Min_cycle;Max_cycle;Signal;HPM_P1;HPM_P2
2023/08/29 00:00:56;;;;;;;;;;;;;;;11.95;100.00;101246.03;4992081;28;19928;-73
2023/08/29 00:03:21;;;;;;;;;;;;;;;11.89;100.00;101242.00;5009550;28;19943;-73
2023/08/29 00:05:47;;;;;;;;;;;;;;;11.89;100.00;101230.38;5011225;28;19929;-74
2023/08/29 00:08:12;;;;;;;;;;;;;;;11.90;100.00;101229.41;4986596;28;19926;-74
2023/08/29 00:10:37;;;;;;;;;;;;;;;11.86;100.00;101228.78;4989448;28;20032;-73
2023/08/29 00:13:03;;;;;;;;;;;;;;;11.89;100.00;101233.09;5009915;28;19945;-74
2023/08/29 00:15:28;;;;;;;;;;;;;;;11.85;100.00;101229.75;4978799;28;19931;-74
2023/08/29 00:17:53;;;;;;;;;;;;;;;11.83;100.00;101224.50;4997091;28;19920;-74
2023/08/29 00:20:18;;;;;;;;;;;;;;;11.85;100.00;101213.59;4977502;28;19925;-74
2023/08/29 00:22:43;;;;;;;;;;;;;;;11.87;100.00;101213.50;5006871;28;19960;-75
2023/08/29 00:25:09;;;;;;;;;;;;;;;11.83;100.00;101211.06;4991741;28;20075;-74
2023/08/29 00:27:34;;;;;;;;;;;;;;;11.85;100.00;101203.72;5005184;28;19960;-74
2023/08/29 00:29:59;;;;;;;;;;;;;;;11.90;100.00;101202.50;4986813;28;20067;-74
2023/08/29 00:32:24;;;;;;;;;;;;;;;11.90;100.00;101208.72;4992919;28;20464;-74
2023/08/29 00:34:50;;;;;;;;;;;;;;;11.82;100.00;101206.66;5006860;28;20545;-74
2023/08/29 00:37:15;;;;;;;;;;;;;;;11.75;100.00;101205.41;5015146;28;20613;-74
2023/08/29 00:39:40;;;;;;;;;;;;;;;11.70;100.00;101205.75;5006052;28;19921;-73
2023/08/29 00:42:05;;;;;;;;;;;;;;;11.69;100.00;101204.03;4990418;28;20403;-74
2023/08/29 00:44:30;;;;;;;;;;;;;;;11.73;100.00;101204.66;4990087;28;19969;-74
2023/08/29 00:46:56;;;;;;;;;;;;;;;11.73;100.00;101204.66;5004064;28;20019;-74
2023/08/29 00:49:25;;;;;;;;;;;;;;;11.67;100.00;101211.38;4996916;28;19921;-74
2023/08/29 00:51:50;;;;;;;;;;;;;;;11.66;100.00;101196.22;5005807;28;20418;-74
2023/08/29 00:54:16;;;;;;;;;;;;;;;11.70;100.00;101204.88;4992979;28;19964;-74
2023/08/29 00:56:41;;;;;;;;;;;;;;;11.66;100.00;101195.34;4996398;28;19967;-74
2023/08/29 00:59:06;;;;;;;;;;;;;;;11.61;100.00;101200.22;4991922;28;19932;-74
2023/08/29 01:01:31;;;;;;;;;;;;;;;11.47;100.00;101180.63;5009047;28;19952;-75
2023/08/29 01:03:57;;;;;;;;;;;;;;;11.60;100.00;101195.81;5010512;28;20004;-74
2023/08/29 01:06:22;;;;;;;;;;;;;;;11.62;100.00;101199.25;5007236;28;19932;-74
2023/08/29 01:08:47;;;;;;;;;;;;;;;11.57;100.00;101202.28;5000109;28;20722;-74
2023/08/29 01:11:19;;;;;;;;;;;;;;;11.47;100.00;101202.13;4990032;28;19925;-74
2023/08/29 01:13:47;;;;;;;;;;;;;;;11.45;100.00;101197.84;5004744;28;20318;-74
2023/08/29 01:16:13;;;;;;;;;;;;;;;11.44;100.00;101204.19;5005808;28;19925;-75
2023/08/29 01:18:38;;;;;;;;;;;;;;;11.46;100.00;101203.09;4997226;28;19921;-74
2023/08/29 01:21:11;;;;;;;;;;;;;;;11.43;100.00;101203.34;5015617;28;20316;-75
2023/08/29 01:23:40;;;;;;;;;;;;;;;11.42;100.00;101198.09;5017260;28;19955;-75
2023/08/29 01:26:10;;;;;;;;;;;;;;;11.39;100.00;101199.16;4992554;28;19959;-75
2023/08/29 01:28:35;;;;;;;;;;;;;;;11.39;100.00;101196.47;4991003;28;19960;-74
2023/08/29 01:31:01;;;;;;;;;;;;;;;11.37;100.00;101204.66;4995304;28;20043;-75
2023/08/29 01:33:26;;;;;;;;;;;;;;;11.33;100.00;101207.72;4995443;28;19968;-75
2023/08/29 01:35:51;;;;;;;;;;;;;;;11.30;100.00;101203.41;5009703;28;20007;-75
2023/08/29 01:38:19;;;;;;;;;;;;;;;11.28;100.00;101204.50;4995971;28;20558;-75
2023/08/29 01:40:45;;;;;;;;;;;;;;;11.21;100.00;101204.94;5011582;28;20387;-75
2023/08/29 01:43:10;;;;;;;;;;;;;;;11.22;100.00;101212.03;4993938;28;19925;-75
2023/08/29 01:45:38;;;;;;;;;;;;;;;11.21;100.00;101214.88;5009407;28;19958;-74
2023/08/29 01:48:04;;;;;;;;;;;;;;;11.15;100.00;101205.41;5018263;28;19963;-74
2023/08/29 01:50:30;;;;;;;;;;;;;;;11.20;100.00;101210.47;4994621;28;20005;-75
2023/08/29 01:52:55;;;;;;;;;;;;;;;11.23;100.00;101207.53;4992614;28;19947;-75
2023/08/29 01:55:20;;;;;;;;;;;;;;;11.24;100.00;101217.31;5015148;28;20054;-75
2023/08/29 01:57:46;;;;;;;;;;;;;;;11.20;100.00;101211.28;4995864;28;19921;-75
2023/08/29 02:00:11;;;;;;;;;;;;;;;11.19;100.00;101214.97;4990767;28;19963;-75
2023/08/29 02:02:38;;;;;;;;;;;;;;;11.11;100.00;101212.00;5009775;28;20537;-75
2023/08/29 02:05:03;;;;;;;;;;;;;;;11.07;100.00;101222.09;5015026;28;20395;-75
2023/08/29 02:07:28;;;;;;;;;;;;;;;11.04;100.00;101224.16;5010003;28;19984;-74
2023/08/29 02:09:54;;;;;;;;;;;;;;;11.06;100.00;101224.91;5013622;28;19961;-74
2023/08/29 02:12:19;;;;;;;;;;;;;;;11.09;100.00;101224.69;5015184;28;20008;-74
2023/08/29 02:14:44;;;;;;;;;;;;;;;11.03;100.00;101225.97;5010175;28;19947;-75
2023/08/29 02:17:10;;;;;;;;;;;;;;;11.01;100.00;101232.44;5014557;28;19921;-74
2023/08/29 02:19:35;;;;;;;;;;;;;;;10.98;100.00;101224.63;5009279;28;19925;-74
2023/08/29 02:22:00;;;;;;;;;;;;;;;10.93;100.00;101233.03;5012287;28;20006;-74
2023/08/29 02:24:27;;;;;;;;;;;;;;;10.91;100.00;101233.13;5011965;28;20035;-75
2023/08/29 02:26:52;;;;;;;;;;;;;;;10.92;100.00;101239.38;5007281;28;19925;-75
2023/08/29 02:29:18;;;;;;;;;;;;;;;10.90;100.00;101239.47;5011377;28;20315;-75
2023/08/29 02:31:43;;;;;;;;;;;;;;;10.88;100.00;101244.09;4999203;28;20338;-74
2023/08/29 02:34:08;;;;;;;;;;;;;;;10.86;100.00;101247.88;5013364;28;19928;-75
2023/08/29 02:36:33;;;;;;;;;;;;;;;10.86;100.00;101253.22;5011641;28;20034;-75
2023/08/29 02:38:59;;;;;;;;;;;;;;;10.85;100.00;101260.44;4996085;28;20020;-75
2023/08/29 02:41:24;;;;;;;;;;;;;;;10.84;100.00;101258.72;4990517;28;19963;-74
2023/08/29 02:43:49;;;;;;;;;;;;;;;10.88;100.00;101264.72;4997291;28;19999;-75
2023/08/29 02:46:14;;;;;;;;;;;;;;;10.92;100.00;101269.75;4995421;28;20225;-75
2023/08/29 02:48:39;;;;;;;;;;;;;;;10.99;100.00;101263.94;5001033;28;19925;-75
2023/08/29 02:51:05;;;;;;;;;;;;;;;11.03;100.00;101268.97;4995885;28;20272;-75
2023/08/29 02:53:30;;;;;;;;;;;;;;;11.03;100.00;101260.91;4995565;28;19974;-75
2023/08/29 02:55:56;;;;;;;;;;;;;;;11.01;100.00;101281.66;4991940;28;19921;-75
2023/08/29 02:58:21;;;;;;;;;;;;;;;10.98;100.00;101273.84;4994208;28;19944;-74
2023/08/29 03:00:47;;;;;;;;;;;;;;;10.97;100.00;101288.25;5013016;28;19924;-74
2023/08/29 03:03:13;;;;;;;;;;;;;;;10.99;100.00;101280.06;4975172;28;20425;-74
2023/08/29 03:05:42;;;;;;;;;;;;;;;11.04;100.00;101284.13;5014998;28;20319;-75
2023/08/29 03:08:07;;;;;;;;;;;;;;;11.12;100.00;101280.03;5009049;28;19929;-75
2023/08/29 03:10:36;;;;;;;;;;;;;;;11.18;100.00;101280.44;4994293;28;19921;-75
2023/08/29 03:13:01;;;;;;;;;;;;;;;11.21;100.00;101284.75;4996962;28;20477;-74
2023/08/29 03:15:30;;;;;;;;;;;;;;;11.20;100.00;101283.88;4996341;28;19917;-75
2023/08/29 03:17:55;;;;;;;;;;;;;;;11.21;100.00;101271.31;5001547;28;19925;-74
2023/08/29 03:20:21;;;;;;;;;;;;;;;11.23;100.00;101272.06;5013624;28;20386;-75
2023/08/29 03:22:46;;;;;;;;;;;;;;;11.22;100.00;101271.19;5014180;28;20216;-75
2023/08/29 03:25:11;;;;;;;;;;;;;;;11.20;100.00;101266.91;4999869;28;19921;-74
2023/08/29 03:27:37;;;;;;;;;;;;;;;11.18;100.00;101264.31;5000586;28;19932;-75
2023/08/29 03:30:02;;;;;;;;;;;;;;;11.21;100.00;101253.34;4989919;28;19972;-74
2023/08/29 03:32:28;;;;;;;;;;;;;;;11.24;100.00;101241.50;4994725;28;20364;-75
2023/08/29 03:34:54;;;;;;;;;;;;;;;11.25;100.00;101238.69;5015833;28;20323;-75
2023/08/29 03:37:19;;;;;;;;;;;;;;;11.24;100.00;101245.03;4976265;28;20281;-75
2023/08/29 03:39:44;;;;;;;;;;;;;;;11.25;100.00;101237.84;5008703;28;19974;-75
2023/08/29 03:42:09;;;;;;;;;;;;;;;11.29;100.00;101242.00;5004695;28;19925;-75
2023/08/29 03:44:35;;;;;;;;;;;;;;;11.31;100.00;101241.91;5011345;28;19917;-74
2023/08/29 03:47:00;;;;;;;;;;;;;;;11.32;100.00;101235.56;5007000;28;19983;-75
2023/08/29 03:49:25;;;;;;;;;;;;;;;11.35;100.00;101238.03;4990929;28;19947;-75
2023/08/29 03:51:50;;;;;;;;;;;;;;;11.36;100.00;101226.31;4991215;28;19921;-75
2023/08/29 03:54:15;;;;;;;;;;;;;;;11.32;100.00;101220.28;5009428;28;20346;-75
2023/08/29 03:56:41;;;;;;;;;;;;;;;11.27;100.00;101210.84;5010512;28;20457;-75
2023/08/29 03:59:06;;;;;;;;;;;;;;;11.23;100.00;101212.91;5009868;28;20363;-75
2023/08/29 04:01:31;;;;;;;;;;;;;;;11.15;100.00;101200.03;5009470;28;20367;-75
2023/08/29 04:03:57;;;;;;;;;;;;;;;11.11;100.00;101201.25;5006390;28;19913;-75
2023/08/29 04:06:22;;;;;;;;;;;;;;;11.09;100.00;101198.66;5008211;28;20189;-75
2023/08/29 04:08:47;;;;;;;;;;;;;;;11.04;100.00;101197.31;4993518;28;19925;-75
2023/08/29 04:11:12;;;;;;;;;;;;;;;10.97;100.00;101193.34;5007024;28;19956;-75
2023/08/29 04:13:38;;;;;;;;;;;;;;;10.96;100.00;101187.13;5004675;28;20027;-76
2023/08/29 04:16:03;;;;;;;;;;;;;;;10.93;100.00;101180.13;5007091;28;20196;-76
2023/08/29 04:18:29;;;;;;;;;;;;;;;10.88;100.00;101187.66;4991912;28;19928;-76
2023/08/29 04:20:55;;;;;;;;;;;;;;;10.84;100.00;101182.66;5005512;28;19971;-75
2023/08/29 04:23:20;;;;;;;;;;;;;;;10.85;100.00;101185.25;5009348;28;20020;-75
2023/08/29 04:25:45;;;;;;;;;;;;;;;10.95;100.00;101185.41;5011859;28;20019;-75
2023/08/29 04:28:12;;;;;;;;;;;;;;;11.00;100.00;101185.06;5013652;28;20427;-75
2023/08/29 04:30:37;;;;;;;;;;;;;;;10.91;100.00;101189.28;5012781;28;19971;-76
2023/08/29 04:33:03;;;;;;;;;;;;;;;10.78;100.00;101184.81;5014698;28;20359;-76
2023/08/29 04:35:28;;;;;;;;;;;;;;;10.74;100.00;101186.00;4996389;28;19963;-75
2023/08/29 04:37:54;;;;;;;;;;;;;;;10.72;100.00;101179.03;5014746;28;20039;-75
2023/08/29 04:40:21;;;;;;;;;;;;;;;10.74;100.00;101174.41;5011102;28;20406;-75
2023/08/29 04:42:46;;;;;;;;;;;;;;;10.78;100.00;101174.06;5011422;28;19928;-75
2023/08/29 04:45:11;;;;;;;;;;;;;;;10.78;100.00;101173.22;5015457;28;19920;-75
2023/08/29 04:47:37;;;;;;;;;;;;;;;10.79;100.00;101165.03;5013113;28;19929;-75
2023/08/29 04:50:03;;;;;;;;;;;;;;;10.69;100.00;101164.00;4994906;28;20018;-75
2023/08/29 04:52:28;;;;;;;;;;;;;;;10.63;100.00;101162.63;4994902;28;20383;-76
2023/08/29 04:54:53;;;;;;;;;;;;;;;10.65;100.00;101168.72;5016827;28;19928;-75
2023/08/29 04:57:18;;;;;;;;;;;;;;;10.67;100.00;101171.31;5010939;28;19956;-75
2023/08/29 04:59:44;;;;;;;;;;;;;;;10.68;100.00;101164.97;5014481;28;20019;-77
2023/08/29 05:02:09;;;;;;;;;;;;;;;10.65;100.00;101168.72;5010338;28;19921;-75
2023/08/29 05:04:34;;;;;;;;;;;;;;;10.57;100.00;101164.91;4996402;28;19927;-75
2023/08/29 05:07:00;;;;;;;;;;;;;;;10.57;100.00;101170.25;5009955;28;19921;-75
2023/08/29 05:09:25;;;;;;;;;;;;;;;10.57;100.00;101181.88;5014794;28;19951;-75
2023/08/29 05:11:50;;;;;;;;;;;;;;;10.63;100.00;101185.94;5015336;28;19917;-75
2023/08/29 05:14:15;;;;;;;;;;;;;;;10.70;100.00;101195.28;5007701;28;19925;-76
2023/08/29 05:16:40;;;;;;;;;;;;;;;10.79;100.00;101191.06;5009902;28;20384;-75
2023/08/29 05:19:07;;;;;;;;;;;;;;;10.88;100.00;101187.66;4994768;28;20432;-76
2023/08/29 05:21:33;;;;;;;;;;;;;;;10.95;100.00;101194.31;5011222;28;19921;-76
2023/08/29 05:23:58;;;;;;;;;;;;;;;11.04;100.00;101191.94;5014530;28;20328;-75
2023/08/29 05:26:24;;;;;;;;;;;;;;;11.02;100.00;101191.19;4979161;28;19924;-76
2023/08/29 05:28:49;;;;;;;;;;;;;;;11.00;100.00;101196.66;5010725;28;19925;-76
2023/08/29 05:31:14;;;;;;;;;;;;;;;10.90;100.00;101198.31;5013252;28;19924;-75
2023/08/29 05:33:39;;;;;;;;;;;;;;;10.82;100.00;101198.00;5012013;28;21413;-75
2023/08/29 05:36:04;;;;;;;;;;;;;;;10.77;100.00;101204.56;5012351;28;19960;-76
2023/08/29 05:38:30;;;;;;;;;;;;;;;10.78;100.00;101202.75;5006960;28;19917;-74
2023/08/29 05:40:56;;;;;;;;;;;;;;;10.79;100.00;101199.09;4993491;28;20183;-75
2023/08/29 05:43:21;;;;;;;;;;;;;;;10.83;100.00;101203.28;5010545;28;19987;-74
2023/08/29 05:45:46;;;;;;;;;;;;;;;10.85;100.00;101193.28;5003859;28;19987;-75
2023/08/29 05:48:11;;;;;;;;;;;;;;;10.86;100.00;101200.34;5002667;28;19925;-76
2023/08/29 05:50:40;;;;;;;;;;;;;;;10.91;100.00;101203.56;4981712;28;19960;-76
2023/08/29 05:53:05;;;;;;;;;;;;;;;10.71;100.00;101164.75;5008520;28;19932;-75
2023/08/29 05:55:30;;;;;;;;;;;;;;;11.04;100.00;101208.88;4996081;28;19920;-76
2023/08/29 05:57:56;;;;;;;;;;;;;;;11.11;100.00;101209.31;5010127;28;19925;-76
2023/08/29 06:00:21;;;;;;;;;;;;;;;11.17;100.00;101203.47;5007637;28;20390;-76
2023/08/29 06:02:47;;;;;;;;;;;;;;;11.26;100.00;101218.03;5010096;28;20442;-77
2023/08/29 06:05:13;;;;;;;;;;;;;;;11.33;100.00;101205.00;5009010;28;19921;-76
2023/08/29 06:07:38;;;;;;;;;;;;;;;11.43;100.00;101207.88;5011159;28;19953;-76
2023/08/29 06:10:05;;;;;;;;;;;;;;;11.51;100.00;101210.84;5016274;28;20365;-76
2023/08/29 06:12:30;;;;;;;;;;;;;;;11.61;100.00;101209.16;4996104;28;19929;-76
2023/08/29 06:14:56;;;;;;;;;;;;;;;11.66;100.00;101204.28;5017118;28;19921;-76
2023/08/29 06:17:21;;;;;;;;;;;;;;;11.63;100.00;101209.88;4997425;28;19921;-76
2023/08/29 06:19:46;;;;;;;;;;;;;;;11.60;100.00;101202.06;5012567;28;19924;-76
2023/08/29 06:22:11;;;;;;;;;;;;;;;11.63;100.00;101209.88;5012972;28;19957;-76
2023/08/29 06:24:36;;;;;;;;;;;;;;;11.76;100.00;101212.50;5002628;28;19924;-76
2023/08/29 06:27:02;;;;;;;;;;;;;;;11.88;100.00;101216.06;5000702;28;19968;-76
2023/08/29 06:29:27;;;;;;;;;;;;;;;12.04;100.00;101210.38;5001194;28;20052;-77
2023/08/29 06:31:52;;;;;;;;;;;;;;;12.21;100.00;101210.88;5002641;28;20303;-76
2023/08/29 06:34:17;;;;;;;;;;;;;;;12.37;100.00;101216.78;5001690;28;19932;-76
2023/08/29 06:36:43;;;;;;;;;;;;;;;12.51;100.00;101218.38;5001061;28;19963;-76
2023/08/29 06:39:08;;;;;;;;;;;;;;;12.65;100.00;101209.19;5001533;28;19924;-76
2023/08/29 06:41:33;;;;;;;;;;;;;;;12.84;100.00;101208.53;5005149;28;19925;-76
2023/08/29 06:43:58;;;;;;;;;;;;;;;13.02;100.00;101203.47;5015350;28;19925;-76
2023/08/29 06:46:24;;;;;;;;;;;;;;;13.17;100.00;101212.13;4995120;28;19925;-76
2023/08/29 06:48:49;;;;;;;;;;;;;;;13.33;100.00;101205.47;5012777;28;19917;-77
2023/08/29 06:51:14;;;;;;;;;;;;;;;13.50;100.00;101204.91;5018526;28;19946;-77
2023/08/29 06:53:39;;;;;;;;;;;;;;;13.74;100.00;101200.28;4995189;28;19983;-76
2023/08/29 06:56:04;;;;;;;;;;;;;;;13.95;100.00;101205.63;5015970;28;19925;-76
2023/08/29 06:58:30;;;;;;;;;;;;;;;14.14;100.00;101204.06;5000853;28;20348;-76
2023/08/29 07:00:55;;;;;;;;;;;;;;;14.35;100.00;101202.16;4995349;28;20354;-76
2023/08/29 07:03:20;;;;;;;;;;;;;;;14.51;100.00;101200.81;5011197;28;19921;-76
2023/08/29 07:05:46;;;;;;;;;;;;;;;14.64;100.00;101200.56;4994908;28;19965;-76
2023/08/29 07:08:11;;;;;;;;;;;;;;;14.85;100.00;101192.41;4997346;28;19944;-77
2023/08/29 07:10:36;;;;;;;;;;;;;;;14.96;100.00;101191.44;4999711;28;20719;-76
2023/08/29 07:13:01;;;;;;;;;;;;;;;15.04;100.00;101188.00;4998183;28;20310;-76
2023/08/29 07:15:26;;;;;;;;;;;;;;;15.12;100.00;101186.31;4996558;28;20260;-77
2023/08/29 07:17:53;;;;;;;;;;;;;;;15.19;100.00;101180.34;5007552;28;19917;-76
2023/08/29 07:20:19;;;;;;;;;;;;;;;15.39;100.00;101187.47;5016147;28;19932;-76
2023/08/29 07:22:45;;;;;;;;;;;;;;;15.43;100.00;101188.03;5005410;28;19921;-77
2023/08/29 07:25:11;;;;;;;;;;;;;;;15.61;100.00;101188.19;5013517;28;20016;-76
2023/08/29 07:27:36;;;;;;;;;;;;;;;15.74;100.00;101188.72;4995695;28;19925;-77
2023/08/29 07:30:03;;;;;;;;;;;;;;;15.89;100.00;101183.75;4997715;28;20020;-76
2023/08/29 07:32:30;;;;;;;;;;;;;;;16.07;100.00;101192.97;5004760;28;22304;-76
2023/08/29 07:34:56;;;;;;;;;;;;;;;16.18;100.00;101190.94;4999323;28;19921;-77
2023/08/29 07:37:21;;;;;;;;;;;;;;;16.30;100.00;101183.47;5012162;28;19921;-76
2023/08/29 07:39:46;;;;;;;;;;;;;;;16.46;100.00;101190.09;5012573;28;20386;-77
2023/08/29 07:42:11;;;;;;;;;;;;;;;16.51;100.00;101190.50;4996406;28;20435;-77
2023/08/29 07:44:37;;;;;;;;;;;;;;;16.55;100.00;101189.19;5007359;28;20290;-77
2023/08/29 07:47:02;;;;;;;;;;;;;;;16.73;100.00;101185.66;4992502;28;20417;-77
2023/08/29 07:49:27;;;;;;;;;;;;;;;16.91;100.00;101180.28;5013937;28;20517;-77
2023/08/29 07:51:53;;;;;;;;;;;;;;;16.79;100.00;101175.09;5007758;28;19972;-76
2023/08/29 07:54:19;;;;;;;;;;;;;;;16.81;100.00;101196.63;4994006;28;20343;-76
2023/08/29 07:56:44;;;;;;;;;;;;;;;17.00;100.00;101195.69;5014188;28;19925;-76
2023/08/29 07:59:09;;;;;;;;;;;;;;;17.06;100.00;101194.22;5008241;28;20778;-76
2023/08/29 08:01:34;;;;;;;;;;;;;;;17.09;100.00;101192.03;4992915;28;20383;-76
2023/08/29 08:03:59;;;;;;;;;;;;;;;17.31;100.00;101189.03;4994646;28;19972;-77
2023/08/29 08:06:25;;;;;;;;;;;;;;;17.41;100.00;101197.94;5014643;28;20035;-76
2023/08/29 08:08:50;;;;;;;;;;;;;;;17.55;100.00;101201.97;4996350;28;20016;-76
2023/08/29 08:11:15;;;;;;;;;;;;;;;17.54;100.00;101197.53;5009567;28;19963;-77
2023/08/29 08:13:41;;;;;;;;;;;;;;;17.50;100.00;101198.88;5012931;28;20007;-77
2023/08/29 08:16:06;;;;;;;;;;;;;;;17.49;100.00;101198.00;4993703;28;19917;-76
2023/08/29 08:18:31;;;;;;;;;;;;;;;17.59;100.00;101200.66;5010572;28;19952;-76
2023/08/29 08:20:56;;;;;;;;;;;;;;;17.55;100.00;101199.25;4993951;28;19921;-76
2023/08/29 08:23:21;;;;;;;;;;;;;;;17.58;100.00;101190.81;4991966;28;19928;-76
2023/08/29 08:25:47;;;;;;;;;;;;;;;17.50;100.00;101190.72;4991595;28;19998;-76
2023/08/29 08:28:13;;;;;;;;;;;;;;;17.36;100.00;101190.25;4997293;28;20011;-77
2023/08/29 08:30:38;;;;;;;;;;;;;;;17.37;100.00;101191.97;5011698;28;20357;-76
2023/08/29 08:33:05;;;;;;;;;;;;;;;17.43;100.00;101189.63;5016133;28;20371;-76
2023/08/29 08:35:30;;;;;;;;;;;;;;;17.51;100.00;101198.69;5011845;28;20372;-76
2023/08/29 08:37:55;;;;;;;;;;;;;;;17.46;100.00;101195.63;5011179;28;19921;-76
2023/08/29 08:40:20;;;;;;;;;;;;;;;17.30;100.00;101195.44;4996219;28;19948;-76
2023/08/29 08:42:46;;;;;;;;;;;;;;;17.48;100.00;101200.88;5011838;28;20383;-76
2023/08/29 08:45:11;;;;;;;;;;;;;;;17.57;100.00;101199.94;5007988;28;20223;-76
2023/08/29 08:47:36;;;;;;;;;;;;;;;17.75;100.00;101199.06;5012040;28;20525;-75
2023/08/29 08:50:03;;;;;;;;;;;;;;;17.72;100.00;101194.81;5012508;28;19925;-76
2023/08/29 08:52:29;;;;;;;;;;;;;;;17.61;100.00;101190.47;5003694;28;19931;-75
2023/08/29 08:54:54;;;;;;;;;;;;;;;17.76;100.00;101184.47;4997288;28;19925;-76
2023/08/29 08:57:19;;;;;;;;;;;;;;;18.05;100.00;101188.78;5009559;28;19925;-75
2023/08/29 08:59:44;;;;;;;;;;;;;;;18.11;100.00;101182.72;5010733;28;19974;-75
2023/08/29 09:02:10;;;;;;;;;;;;;;;17.91;100.00;101185.59;4997192;28;20024;-75
2023/08/29 09:04:35;;;;;;;;;;;;;;;18.28;100.00;101180.91;5003115;28;19927;-76
2023/08/29 09:07:01;;;;;;;;;;;;;;;18.41;100.00;101178.59;4993354;28;20375;-78
2023/08/29 09:09:26;;;;;;;;;;;;;;;18.63;100.00;101178.19;5005420;28;19936;-76
2023/08/29 09:12:00;;;;;;;;;;;;;;;18.69;100.00;101182.94;5006786;28;19920;-76
2023/08/29 09:14:26;;;;;;;;;;;;;;;18.94;100.00;101178.44;4996850;28;19921;-77
2023/08/29 09:16:52;;;;;;;;;;;;;;;19.17;100.00;101186.88;4990449;28;19983;-76
2023/08/29 09:19:17;;;;;;;;;;;;;;;19.27;100.00;101181.25;5010290;28;20318;-76
2023/08/29 09:21:42;;;;;;;;;;;;;;;18.88;100.00;101188.13;4998673;28;19952;-75
2023/08/29 09:24:10;;;;;;;;;;;;;;;18.39;100.00;101187.94;5005390;28;19924;-75
2023/08/29 09:26:35;;;;;;;;;;;;;;;18.54;100.00;101182.75;5004483;28;19929;-75
2023/08/29 09:29:04;;;;;;;;;;;;;;;18.27;100.00;101185.50;4993573;28;20039;-75
2023/08/29 09:31:30;;;;;;;;;;;;;;;18.23;100.00;101188.72;4990517;28;19916;-75
2023/08/29 09:33:55;;;;;;;;;;;;;;;18.21;100.00;101194.28;5012204;28;19975;-76
2023/08/29 09:36:21;;;;;;;;;;;;;;;18.46;100.00;101178.09;4993070;28;20028;-75
2023/08/29 09:38:46;;;;;;;;;;;;;;;18.63;100.00;101191.78;5004153;28;19927;-75
2023/08/29 09:41:12;;;;;;;;;;;;;;;19.12;100.00;101188.38;4997333;28;19960;-75
2023/08/29 09:43:38;;;;;;;;;;;;;;;19.53;100.00;101182.97;4993673;28;20348;-76
2023/08/29 09:46:03;;;;;;;;;;;;;;;19.74;100.00;101176.13;4997649;28;19921;-76
2023/08/29 09:48:29;;;;;;;;;;;;;;;19.78;100.00;101175.59;5008017;28;20442;-74
2023/08/29 09:50:54;;;;;;;;;;;;;;;20.03;100.00;101175.59;4998501;28;19971;-76
2023/08/29 09:53:19;;;;;;;;;;;;;;;20.27;100.00;101173.00;5002016;28;19916;-77
2023/08/29 09:55:50;;;;;;;;;;;;;;;20.54;100.00;101174.41;4995575;28;19925;-77
2023/08/29 09:58:16;;;;;;;;;;;;;;;20.75;100.00;101170.22;4994515;28;19971;-75
2023/08/29 10:00:42;;;;;;;;;;;;;;;20.69;100.00;101174.50;4993346;28;21071;-74
2023/08/29 10:03:08;;;;;;;;;;;;;;;20.34;100.00;101166.66;4998473;28;19927;-77
2023/08/29 10:05:34;;;;;;;;;;;;;;;20.64;100.00;101166.84;4997014;28;20441;-75
2023/08/29 10:08:00;;;;;;;;;;;;;;;20.42;100.00;101163.03;5013178;28;19925;-76
2023/08/29 10:10:25;;;;;;;;;;;;;;;20.10;100.00;101164.00;4997027;28;19928;-76
2023/08/29 10:12:51;;;;;;;;;;;;;;;20.46;100.00;101166.28;5000169;28;19921;-77
2023/08/29 10:15:19;;;;;;;;;;;;;;;20.71;100.00;101160.69;4998524;28;19921;-76
2023/08/29 10:17:44;;;;;;;;;;;;;;;21.24;100.00;101161.75;5010259;28;20421;-77
2023/08/29 10:20:12;;;;;;;;;;;;;;;21.80;100.00;101159.75;5011899;28;20217;-78
2023/08/29 10:22:38;;;;;;;;;;;;;;;21.82;100.00;101158.53;4979962;28;20362;-76
2023/08/29 10:25:04;;;;;;;;;;;;;;;21.29;99.02;101153.00;4995231;28;19925;-75
2023/08/29 10:27:33;;;;;;;;;;;;;;;21.18;100.00;101151.53;5010275;28;20249;-76
2023/08/29 10:29:58;;;;;;;;;;;;;;;21.34;98.63;101152.44;5014415;28;19921;-77
2023/08/29 10:32:24;;;;;;;;;;;;;;;21.61;100.00;101158.34;4998053;28;20372;-78
2023/08/29 10:34:49;;;;;;;;;;;;;;;21.63;98.34;101159.06;4997785;28;19925;-77
2023/08/29 10:37:18;;;;;;;;;;;;;;;21.40;97.51;101154.44;4998260;28;20119;-78
2023/08/29 10:39:44;;;;;;;;;;;;;;;21.52;96.89;101150.25;5015074;28;20233;-77
2023/08/29 10:42:09;;;;;;;;;;;;;;;21.61;99.80;101153.78;5006922;28;20587;-77
2023/08/29 10:44:36;;;;;;;;;;;;;;;21.72;95.91;101147.00;4988305;28;19957;-77
2023/08/29 10:47:26;;;;;;;;;;;;;;;21.76;89.22;101155.69;4992875;28;20412;-77
2023/08/29 10:49:58;;;;;;;;;;;;;;;21.77;87.39;101154.66;5007570;28;19956;-77
2023/08/29 10:52:23;;;;;;;;;;;;;;;21.56;98.19;101154.31;5011723;28;19944;-77
2023/08/29 10:55:01;;;;;;;;;;;;;;;21.34;95.05;101149.69;5013723;28;19925;-77
2023/08/29 10:57:30;;;;;;;;;;;;;;;21.16;93.41;101147.31;4995529;28;19921;-77
2023/08/29 10:59:55;;;;;;;;;;;;;;;21.10;98.32;101148.88;4994385;28;19920;-77
2023/08/29 11:02:27;;;;;;;;;;;;;;;20.98;98.97;101141.13;5000079;28;19921;-77
2023/08/29 11:04:53;;;;;;;;;;;;;;;20.74;88.93;101144.81;4997312;28;19921;-77
2023/08/29 11:07:24;;;;;;;;;;;;;;;20.60;93.21;101134.66;4998247;28;19936;-77
2023/08/29 11:10:03;;;;;;;;;;;;;;;20.03;95.63;101134.72;5012784;28;19924;-77
2023/08/29 11:12:28;;;;;;;;;;;;;;;19.75;90.54;101128.81;4994381;28;20618;-76
2023/08/29 11:14:55;;;;;;;;;;;;;;;19.81;95.14;101129.97;4991518;28;20543;-77
2023/08/29 11:17:24;;;;;;;;;;;;;;;19.80;95.74;101126.41;4994448;28;20048;-77
2023/08/29 11:19:56;;;;;;;;;;;;;;;19.92;99.97;101124.22;4989395;28;20407;-77
2023/08/29 11:22:26;;;;;;;;;;;;;;;19.99;90.96;101130.66;4978435;28;19928;-77
2023/08/29 11:24:55;;;;;;;;;;;;;;;20.11;100.00;101120.25;5011920;28;19917;-77
2023/08/29 11:27:23;;;;;;;;;;;;;;;20.06;100.00;101117.19;4998518;28;20390;-77
2023/08/29 11:29:48;;;;;;;;;;;;;;;20.25;100.00;101120.50;5010837;28;19921;-78
2023/08/29 11:32:13;;;;;;;;;;;;;;;20.45;100.00;101116.31;4994244;28;19928;-77
2023/08/29 11:34:38;;;;;;;;;;;;;;;20.58;100.00;101123.09;4991507;28;20515;-78
2023/08/29 11:37:07;;;;;;;;;;;;;;;20.70;100.00;101116.19;5009365;28;20410;-77
2023/08/29 11:39:33;;;;;;;;;;;;;;;20.85;100.00;101116.28;4991254;28;19996;-77
2023/08/29 11:41:58;;;;;;;;;;;;;;;20.93;100.00;101110.78;4993218;28;20010;-76
2023/08/29 11:44:26;;;;;;;;;;;;;;;21.18;100.00;101110.59;4990333;28;19929;-77
2023/08/29 11:46:52;;;;;;;;;;;;;;;21.49;100.00;101111.50;4993666;28;20008;-77
2023/08/29 11:49:17;;;;;;;;;;;;;;;21.77;100.00;101103.59;4995456;28;19928;-77
2023/08/29 11:51:42;;;;;;;;;;;;;;;21.88;97.16;101113.22;5006008;28;20701;-77
2023/08/29 11:54:26;;;;;;;;;;;;;;;21.92;91.46;101105.47;5009505;28;19940;-77
2023/08/29 11:56:55;;;;;;;;;;;;;;;22.16;92.84;101105.16;5008073;28;19975;-78
2023/08/29 11:59:20;;;;;;;;;;;;;;;22.24;90.64;101104.25;5008808;28;19987;-73
2023/08/29 12:01:46;;;;;;;;;;;;;;;22.46;88.86;101101.59;5007324;28;20353;-75
2023/08/29 12:04:11;;;;;;;;;;;;;;;22.75;90.50;101095.19;5005426;28;20407;-74
2023/08/29 12:06:36;;;;;;;;;;;;;;;23.28;89.29;101102.22;5005767;28;20534;-74
2023/08/29 12:09:01;;;;;;;;;;;;;;;23.67;91.29;101100.84;4994781;28;19925;-74
2023/08/29 12:11:39;;;;;;;;;;;;;;;23.79;77.17;101101.16;5008245;28;19925;-74
2023/08/29 12:14:07;;;;;;;;;;;;;;;24.29;77.69;101093.81;5009875;28;19925;-74
2023/08/29 12:16:33;;;;;;;;;;;;;;;24.65;74.32;101096.25;5010676;28;20410;-74
2023/08/29 12:19:05;;;;;;;;;;;;;;;24.41;74.87;101100.41;5012849;28;20360;-73
2023/08/29 12:21:30;;;;;;;;;;;;;;;23.72;74.67;101093.91;5005658;28;20485;-73